Terminal Aerodrome Forecast
Issued by NWS

Home | Current Version | Previous Version | Text Only | Print | Product List | Glossary On
Versions: 1 2 3 4 5 6 7 8 9 10 11 12 13 14 15 16 17 18 19 20 21 22 23 24 25 26 27 28 29 30 31 32 33 34 35 36 37 38 39 40 41 42 43 44 45 46 47 48 49 50
534
FTUS46 KEKA 241616 AAA
TAFACV
TAF AMD
KACV 241616Z 2416/2512 30005KT P6SM FEW007 BKN030
     FM241800 33002KT 6SM BR SCT007 OVC022
     FM242000 30006KT P6SM SCT025
     FM250300 31005KT P6SM BKN006 OVC080
     FM250700 VRB03KT 6SM -SHRA BR OVC006=

USA.gov is the U.S. government's official web portal to all federal, state and local government web resources and services.